sensor_id;sensor_type;location;lat;lon;timestamp;pressure;altitude;pressure_sealevel;temperature;humidity
54948;BME280;41113;41.882;12.530;2023-07-31T00:00:56;100778.41;;;27.22;72.00
54948;BME280;41113;41.882;12.530;2023-07-31T00:03:21;100768.06;;;27.29;71.82
54948;BME280;41113;41.882;12.530;2023-07-31T00:05:46;100768.91;;;27.30;71.59
54948;BME280;41113;41.882;12.530;2023-07-31T00:08:12;100765.19;;;27.24;72.99
54948;BME280;41113;41.882;12.530;2023-07-31T00:10:37;100767.78;;;26.79;75.15
54948;BME280;41113;41.882;12.530;2023-07-31T00:13:02;100768.50;;;26.63;76.01
54948;BME280;41113;41.882;12.530;2023-07-31T00:15:28;100768.03;;;26.43;76.72
54948;BME280;41113;41.882;12.530;2023-07-31T00:17:53;100767.50;;;26.22;76.55
54948;BME280;41113;41.882;12.530;2023-07-31T00:20:19;100760.44;;;26.26;76.25
54948;BME280;41113;41.882;12.530;2023-07-31T00:22:44;100762.34;;;26.14;76.59
54948;BME280;41113;41.882;12.530;2023-07-31T00:25:10;100755.03;;;26.08;76.42
54948;BME280;41113;41.882;12.530;2023-07-31T00:27:35;100749.13;;;25.93;77.57
54948;BME280;41113;41.882;12.530;2023-07-31T00:30:00;100740.59;;;25.83;77.87
54948;BME280;41113;41.882;12.530;2023-07-31T00:32:26;100741.56;;;25.77;77.85
54948;BME280;41113;41.882;12.530;2023-07-31T00:34:51;100747.66;;;25.79;77.61
54948;BME280;41113;41.882;12.530;2023-07-31T00:37:16;100749.81;;;25.77;77.55
54948;BME280;41113;41.882;12.530;2023-07-31T00:39:42;100748.00;;;25.70;76.80
54948;BME280;41113;41.882;12.530;2023-07-31T00:42:07;100738.81;;;25.77;76.32
54948;BME280;41113;41.882;12.530;2023-07-31T00:44:33;100738.94;;;25.82;75.48
54948;BME280;41113;41.882;12.530;2023-07-31T00:46:58;100737.84;;;25.83;75.20
54948;BME280;41113;41.882;12.530;2023-07-31T00:49:24;100734.38;;;25.76;75.42
54948;BME280;41113;41.882;12.530;2023-07-31T00:51:51;100745.25;;;25.70;75.43
54948;BME280;41113;41.882;12.530;2023-07-31T00:54:17;100732.38;;;25.64;75.33
54948;BME280;41113;41.882;12.530;2023-07-31T00:56:45;100736.53;;;25.73;75.08
54948;BME280;41113;41.882;12.530;2023-07-31T00:59:10;100740.63;;;25.64;75.03
54948;BME280;41113;41.882;12.530;2023-07-31T01:01:36;100737.75;;;25.59;75.69
54948;BME280;41113;41.882;12.530;2023-07-31T01:04:01;100733.44;;;25.63;74.77
54948;BME280;41113;41.882;12.530;2023-07-31T01:09:14;100722.09;;;25.60;74.65
54948;BME280;41113;41.882;12.530;2023-07-31T01:11:48;100720.53;;;25.64;74.58
54948;BME280;41113;41.882;12.530;2023-07-31T01:14:14;100716.28;;;25.68;74.65
54948;BME280;41113;41.882;12.530;2023-07-31T01:16:40;100715.00;;;25.70;74.50
54948;BME280;41113;41.882;12.530;2023-07-31T01:19:06;100709.53;;;25.64;74.57
54948;BME280;41113;41.882;12.530;2023-07-31T01:24:23;100713.06;;;25.71;74.47
54948;BME280;41113;41.882;12.530;2023-07-31T01:26:57;100711.28;;;25.77;73.95
54948;BME280;41113;41.882;12.530;2023-07-31T01:29:32;100718.47;;;25.78;74.09
54948;BME280;41113;41.882;12.530;2023-07-31T01:32:01;100709.84;;;25.74;74.38
54948;BME280;41113;41.882;12.530;2023-07-31T01:34:28;100709.63;;;25.76;74.62
54948;BME280;41113;41.882;12.530;2023-07-31T01:36:53;100710.84;;;25.61;74.80
54948;BME280;41113;41.882;12.530;2023-07-31T01:39:20;100706.28;;;25.55;74.65
54948;BME280;41113;41.882;12.530;2023-07-31T01:41:45;100706.88;;;25.57;74.25
54948;BME280;41113;41.882;12.530;2023-07-31T01:44:11;100707.22;;;25.49;75.15
54948;BME280;41113;41.882;12.530;2023-07-31T01:46:36;100702.66;;;25.43;74.92
54948;BME280;41113;41.882;12.530;2023-07-31T01:49:01;100703.19;;;25.33;74.74
54948;BME280;41113;41.882;12.530;2023-07-31T01:51:27;100702.66;;;25.43;74.70
54948;BME280;41113;41.882;12.530;2023-07-31T01:53:52;100705.53;;;25.18;75.61
54948;BME280;41113;41.882;12.530;2023-07-31T01:56:17;100699.38;;;25.04;76.44
54948;BME280;41113;41.882;12.530;2023-07-31T01:58:43;100705.84;;;24.92;76.60
54948;BME280;41113;41.882;12.530;2023-07-31T02:01:08;100703.41;;;24.83;76.72
54948;BME280;41113;41.882;12.530;2023-07-31T02:03:33;100706.69;;;24.74;77.11
54948;BME280;41113;41.882;12.530;2023-07-31T02:05:59;100701.88;;;24.69;77.30
54948;BME280;41113;41.882;12.530;2023-07-31T02:08:24;100700.13;;;24.75;76.96
54948;BME280;41113;41.882;12.530;2023-07-31T02:10:49;100691.72;;;24.70;77.07
54948;BME280;41113;41.882;12.530;2023-07-31T02:13:15;100698.50;;;24.67;77.18
54948;BME280;41113;41.882;12.530;2023-07-31T02:15:40;100691.78;;;24.63;77.64
54948;BME280;41113;41.882;12.530;2023-07-31T02:18:05;100693.41;;;24.71;76.51
54948;BME280;41113;41.882;12.530;2023-07-31T02:20:34;100699.22;;;24.81;75.98
54948;BME280;41113;41.882;12.530;2023-07-31T02:23:00;100694.78;;;24.98;75.26
54948;BME280;41113;41.882;12.530;2023-07-31T02:25:26;100690.97;;;24.99;75.03
54948;BME280;41113;41.882;12.530;2023-07-31T02:27:51;100686.69;;;25.03;74.84
54948;BME280;41113;41.882;12.530;2023-07-31T02:30:17;100683.63;;;24.93;75.76
54948;BME280;41113;41.882;12.530;2023-07-31T02:32:42;100687.22;;;24.94;75.62
54948;BME280;41113;41.882;12.530;2023-07-31T02:35:08;100679.97;;;24.81;75.94
54948;BME280;41113;41.882;12.530;2023-07-31T02:37:34;100689.91;;;25.00;75.13
54948;BME280;41113;41.882;12.530;2023-07-31T02:39:59;100682.56;;;25.12;74.28
54948;BME280;41113;41.882;12.530;2023-07-31T02:42:24;100681.50;;;25.13;74.13
54948;BME280;41113;41.882;12.530;2023-07-31T02:44:50;100676.16;;;25.00;74.28
54948;BME280;41113;41.882;12.530;2023-07-31T02:47:20;100673.13;;;25.08;74.18
54948;BME280;41113;41.882;12.530;2023-07-31T02:49:46;100672.66;;;25.11;73.93
54948;BME280;41113;41.882;12.530;2023-07-31T02:52:11;100677.91;;;24.95;74.51
54948;BME280;41113;41.882;12.530;2023-07-31T02:54:36;100674.50;;;24.81;75.18
54948;BME280;41113;41.882;12.530;2023-07-31T02:57:02;100678.44;;;24.85;74.94
54948;BME280;41113;41.882;12.530;2023-07-31T02:59:28;100670.13;;;24.92;74.48
54948;BME280;41113;41.882;12.530;2023-07-31T03:01:53;100677.84;;;24.83;74.97
54948;BME280;41113;41.882;12.530;2023-07-31T03:04:18;100680.44;;;24.78;75.01
54948;BME280;41113;41.882;12.530;2023-07-31T03:06:44;100676.47;;;24.74;74.96
54948;BME280;41113;41.882;12.530;2023-07-31T03:09:09;100670.06;;;24.62;75.34
54948;BME280;41113;41.882;12.530;2023-07-31T03:11:34;100678.00;;;24.51;75.91
54948;BME280;41113;41.882;12.530;2023-07-31T03:13:59;100673.81;;;24.49;76.20
54948;BME280;41113;41.882;12.530;2023-07-31T03:16:25;100672.03;;;24.55;75.66
54948;BME280;41113;41.882;12.530;2023-07-31T03:18:50;100684.94;;;24.54;75.77
54948;BME280;41113;41.882;12.530;2023-07-31T03:21:15;100681.81;;;24.50;76.09
54948;BME280;41113;41.882;12.530;2023-07-31T03:23:41;100685.78;;;24.55;75.70
54948;BME280;41113;41.882;12.530;2023-07-31T03:26:08;100675.03;;;24.53;75.42
54948;BME280;41113;41.882;12.530;2023-07-31T03:28:34;100683.25;;;24.53;76.23
54948;BME280;41113;41.882;12.530;2023-07-31T03:30:59;100678.53;;;24.42;76.79
54948;BME280;41113;41.882;12.530;2023-07-31T03:33:25;100680.31;;;24.30;77.43
54948;BME280;41113;41.882;12.530;2023-07-31T03:35:51;100687.88;;;24.34;76.73
54948;BME280;41113;41.882;12.530;2023-07-31T03:38:16;100691.22;;;24.36;76.52
54948;BME280;41113;41.882;12.530;2023-07-31T03:40:41;100688.25;;;24.38;78.08
54948;BME280;41113;41.882;12.530;2023-07-31T03:43:07;100694.59;;;24.38;77.48
54948;BME280;41113;41.882;12.530;2023-07-31T03:45:32;100686.09;;;24.46;77.46
54948;BME280;41113;41.882;12.530;2023-07-31T03:47:58;100682.16;;;24.36;78.21
54948;BME280;41113;41.882;12.530;2023-07-31T03:50:23;100686.66;;;24.30;78.29
54948;BME280;41113;41.882;12.530;2023-07-31T03:52:50;100701.09;;;24.19;79.40
54948;BME280;41113;41.882;12.530;2023-07-31T03:55:15;100701.66;;;24.28;78.95
54948;BME280;41113;41.882;12.530;2023-07-31T03:57:41;100704.41;;;24.28;78.35
54948;BME280;41113;41.882;12.530;2023-07-31T04:00:07;100712.69;;;24.21;78.97
54948;BME280;41113;41.882;12.530;2023-07-31T04:02:32;100710.78;;;24.21;78.59
54948;BME280;41113;41.882;12.530;2023-07-31T04:04:58;100712.53;;;24.16;79.95
54948;BME280;41113;41.882;12.530;2023-07-31T04:07:23;100703.53;;;24.27;78.68
54948;BME280;41113;41.882;12.530;2023-07-31T04:09:48;100706.09;;;24.29;78.79
54948;BME280;41113;41.882;12.530;2023-07-31T04:12:14;100698.03;;;24.34;78.51
54948;BME280;41113;41.882;12.530;2023-07-31T04:14:39;100705.88;;;24.30;79.00
54948;BME280;41113;41.882;12.530;2023-07-31T04:17:05;100702.22;;;24.36;79.00
54948;BME280;41113;41.882;12.530;2023-07-31T04:19:30;100702.28;;;24.30;79.95
54948;BME280;41113;41.882;12.530;2023-07-31T04:21:55;100695.38;;;24.45;79.20
54948;BME280;41113;41.882;12.530;2023-07-31T04:24:21;100704.00;;;25.04;77.42
54948;BME280;41113;41.882;12.530;2023-07-31T04:26:53;100706.53;;;25.65;73.73
54948;BME280;41113;41.882;12.530;2023-07-31T04:29:19;100705.50;;;26.08;71.36
54948;BME280;41113;41.882;12.530;2023-07-31T04:31:44;100707.28;;;26.73;68.41
54948;BME280;41113;41.882;12.530;2023-07-31T04:34:10;100702.50;;;27.20;67.42
54948;BME280;41113;41.882;12.530;2023-07-31T04:36:36;100692.97;;;27.84;63.16
54948;BME280;41113;41.882;12.530;2023-07-31T04:39:02;100691.16;;;28.40;62.84
54948;BME280;41113;41.882;12.530;2023-07-31T04:41:27;100698.84;;;28.77;61.46
54948;BME280;41113;41.882;12.530;2023-07-31T04:43:53;100706.91;;;29.22;59.98
54948;BME280;41113;41.882;12.530;2023-07-31T04:46:18;100698.97;;;29.80;57.40
54948;BME280;41113;41.882;12.530;2023-07-31T04:48:43;100698.59;;;28.78;58.98
54948;BME280;41113;41.882;12.530;2023-07-31T04:51:09;100702.19;;;28.24;60.58
54948;BME280;41113;41.882;12.530;2023-07-31T04:53:35;100700.88;;;28.43;60.81
54948;BME280;41113;41.882;12.530;2023-07-31T04:56:00;100696.13;;;28.99;59.10
54948;BME280;41113;41.882;12.530;2023-07-31T04:58:26;100702.25;;;29.50;57.93
54948;BME280;41113;41.882;12.530;2023-07-31T05:00:51;100695.84;;;29.71;56.36
54948;BME280;41113;41.882;12.530;2023-07-31T05:03:17;100705.16;;;29.60;56.74
54948;BME280;41113;41.882;12.530;2023-07-31T05:05:42;100701.59;;;29.64;56.70
54948;BME280;41113;41.882;12.530;2023-07-31T05:08:08;100706.91;;;30.35;55.00
54948;BME280;41113;41.882;12.530;2023-07-31T05:10:33;100700.34;;;32.07;51.15
54948;BME280;41113;41.882;12.530;2023-07-31T05:12:58;100697.53;;;32.53;50.31
54948;BME280;41113;41.882;12.530;2023-07-31T05:15:24;100701.44;;;33.31;48.35
54948;BME280;41113;41.882;12.530;2023-07-31T05:17:49;100704.09;;;32.97;48.19
54948;BME280;41113;41.882;12.530;2023-07-31T05:20:14;100694.66;;;33.48;47.46
54948;BME280;41113;41.882;12.530;2023-07-31T05:22:40;100692.56;;;32.14;49.25
54948;BME280;41113;41.882;12.530;2023-07-31T05:25:06;100693.56;;;32.84;48.21
54948;BME280;41113;41.882;12.530;2023-07-31T05:27:32;100689.22;;;32.07;47.95
54948;BME280;41113;41.882;12.530;2023-07-31T05:29:58;100691.72;;;32.08;49.22
54948;BME280;41113;41.882;12.530;2023-07-31T05:32:23;100693.31;;;32.70;47.50
54948;BME280;41113;41.882;12.530;2023-07-31T05:34:53;100690.91;;;31.93;49.70
54948;BME280;41113;41.882;12.530;2023-07-31T05:37:20;100691.13;;;31.61;49.40
54948;BME280;41113;41.882;12.530;2023-07-31T05:39:45;100686.41;;;31.61;49.86
54948;BME280;41113;41.882;12.530;2023-07-31T05:42:11;100684.06;;;32.95;46.95
54948;BME280;41113;41.882;12.530;2023-07-31T05:44:36;100689.53;;;33.21;45.68
54948;BME280;41113;41.882;12.530;2023-07-31T05:47:01;100687.50;;;32.52;46.73
54948;BME280;41113;41.882;12.530;2023-07-31T05:49:27;100690.28;;;33.36;45.33
54948;BME280;41113;41.882;12.530;2023-07-31T05:51:52;100677.47;;;33.35;46.66
54948;BME280;41113;41.882;12.530;2023-07-31T05:54:17;100688.00;;;32.89;46.69
54948;BME280;41113;41.882;12.530;2023-07-31T05:56:43;100683.00;;;32.81;47.62
54948;BME280;41113;41.882;12.530;2023-07-31T05:59:09;100687.72;;;33.45;45.04
54948;BME280;41113;41.882;12.530;2023-07-31T06:01:35;100688.25;;;33.52;44.14
54948;BME280;41113;41.882;12.530;2023-07-31T06:04:00;100689.47;;;33.26;45.25
54948;BME280;41113;41.882;12.530;2023-07-31T06:06:27;100689.75;;;32.55;48.16
54948;BME280;41113;41.882;12.530;2023-07-31T06:08:53;100681.38;;;33.29;45.74
54948;BME280;41113;41.882;12.530;2023-07-31T06:11:20;100681.56;;;33.53;45.90
54948;BME280;41113;41.882;12.530;2023-07-31T06:13:46;100681.25;;;33.00;46.50
54948;BME280;41113;41.882;12.530;2023-07-31T06:16:13;100677.63;;;34.75;44.06
54948;BME280;41113;41.882;12.530;2023-07-31T06:18:38;100679.44;;;35.14;43.06
54948;BME280;41113;41.882;12.530;2023-07-31T06:21:04;100669.97;;;36.64;41.09
54948;BME280;41113;41.882;12.530;2023-07-31T06:23:29;100675.06;;;36.15;40.06
54948;BME280;41113;41.882;12.530;2023-07-31T06:25:54;100677.16;;;35.16;42.75
54948;BME280;41113;41.882;12.530;2023-07-31T06:28:20;100672.44;;;34.92;41.32
54948;BME280;41113;41.882;12.530;2023-07-31T06:30:45;100667.47;;;36.02;39.91
54948;BME280;41113;41.882;12.530;2023-07-31T06:33:10;100669.31;;;35.18;40.80
54948;BME280;41113;41.882;12.530;2023-07-31T06:35:36;100678.03;;;34.92;41.10
54948;BME280;41113;41.882;12.530;2023-07-31T06:38:01;100669.03;;;35.38;41.55
54948;BME280;41113;41.882;12.530;2023-07-31T06:40:27;100662.22;;;36.14;39.07
54948;BME280;41113;41.882;12.530;2023-07-31T06:42:53;100660.56;;;35.43;39.84
54948;BME280;41113;41.882;12.530;2023-07-31T06:45:18;100663.44;;;35.57;41.09
54948;BME280;41113;41.882;12.530;2023-07-31T06:47:43;100659.53;;;35.58;41.29
54948;BME280;41113;41.882;12.530;2023-07-31T06:50:09;100662.84;;;35.41;41.41
54948;BME280;41113;41.882;12.530;2023-07-31T06:52:34;100662.81;;;33.20;44.53
54948;BME280;41113;41.882;12.530;2023-07-31T06:55:08;100654.75;;;32.23;47.90
54948;BME280;41113;41.882;12.530;2023-07-31T06:57:42;100661.16;;;32.03;47.92
54948;BME280;41113;41.882;12.530;2023-07-31T07:00:08;100661.44;;;31.66;49.11
54948;BME280;41113;41.882;12.530;2023-07-31T07:02:33;100660.03;;;32.09;48.00
54948;BME280;41113;41.882;12.530;2023-07-31T07:04:59;100655.81;;;32.58;46.54
54948;BME280;41113;41.882;12.530;2023-07-31T07:07:24;100665.91;;;31.93;47.87
54948;BME280;41113;41.882;12.530;2023-07-31T07:09:49;100665.88;;;31.82;48.43
54948;BME280;41113;41.882;12.530;2023-07-31T07:12:15;100667.47;;;31.33;49.46
54948;BME280;41113;41.882;12.530;2023-07-31T07:14:40;100669.44;;;31.37;48.82
54948;BME280;41113;41.882;12.530;2023-07-31T07:17:06;100671.09;;;31.48;48.45
54948;BME280;41113;41.882;12.530;2023-07-31T07:19:32;100670.59;;;30.84;50.35
54948;BME280;41113;41.882;12.530;2023-07-31T07:21:57;100666.94;;;30.63;51.01
54948;BME280;41113;41.882;12.530;2023-07-31T07:24:24;100672.00;;;30.81;50.48
54948;BME280;41113;41.882;12.530;2023-07-31T07:26:50;100667.16;;;31.19;49.66
54948;BME280;41113;41.882;12.530;2023-07-31T07:29:15;100671.41;;;31.67;47.90
54948;BME280;41113;41.882;12.530;2023-07-31T07:31:41;100664.25;;;31.92;47.83
54948;BME280;41113;41.882;12.530;2023-07-31T07:34:06;100674.59;;;31.13;48.91
54948;BME280;41113;41.882;12.530;2023-07-31T07:36:31;100675.44;;;30.56;50.91
54948;BME280;41113;41.882;12.530;2023-07-31T07:38:57;100677.88;;;30.95;49.82
54948;BME280;41113;41.882;12.530;2023-07-31T07:41:23;100684.28;;;30.53;50.48
54948;BME280;41113;41.882;12.530;2023-07-31T07:43:48;100686.72;;;30.02;51.35
54948;BME280;41113;41.882;12.530;2023-07-31T07:46:14;100685.25;;;30.27;50.83
54948;BME280;41113;41.882;12.530;2023-07-31T07:48:39;100682.59;;;30.94;49.13
54948;BME280;41113;41.882;12.530;2023-07-31T07:51:04;100687.06;;;30.53;49.45
54948;BME280;41113;41.882;12.530;2023-07-31T07:53:30;100676.47;;;30.40;50.86
54948;BME280;41113;41.882;12.530;2023-07-31T07:55:55;100682.78;;;30.73;49.67
54948;BME280;41113;41.882;12.530;2023-07-31T07:58:20;100680.53;;;31.32;48.49
54948;BME280;41113;41.882;12.530;2023-07-31T08:00:49;100679.88;;;31.10;47.80
54948;BME280;41113;41.882;12.530;2023-07-31T08:03:15;100685.13;;;31.01;48.74
54948;BME280;41113;41.882;12.530;2023-07-31T08:05:42;100676.41;;;30.77;49.97
54948;BME280;41113;41.882;12.530;2023-07-31T08:08:07;100678.59;;;31.43;48.28
54948;BME280;41113;41.882;12.530;2023-07-31T08:10:33;100683.09;;;31.69;47.29
54948;BME280;41113;41.882;12.530;2023-07-31T08:12:58;100678.91;;;31.56;47.64
54948;BME280;41113;41.882;12.530;2023-07-31T08:15:23;100678.03;;;31.36;48.45
54948;BME280;41113;41.882;12.530;2023-07-31T08:17:49;100680.31;;;31.59;47.82
54948;BME280;41113;41.882;12.530;2023-07-31T08:20:14;100673.38;;;32.07;46.69
54948;BME280;41113;41.882;12.530;2023-07-31T08:22:39;100672.50;;;32.58;45.69
54948;BME280;41113;41.882;12.530;2023-07-31T08:25:06;100677.50;;;32.50;45.48
54948;BME280;41113;41.882;12.530;2023-07-31T08:27:32;100674.25;;;31.87;46.92
54948;BME280;41113;41.882;12.530;2023-07-31T08:29:57;100677.31;;;31.91;46.73
54948;BME280;41113;41.882;12.530;2023-07-31T08:32:22;100673.38;;;31.87;46.71
54948;BME280;41113;41.882;12.530;2023-07-31T08:34:48;100670.81;;;31.45;46.05
54948;BME280;41113;41.882;12.530;2023-07-31T08:37:14;100672.50;;;31.46;45.97
54948;BME280;41113;41.882;12.530;2023-07-31T08:39:39;100664.78;;;31.78;45.82
54948;BME280;41113;41.882;12.530;2023-07-31T08:42:08;100666.41;;;31.69;43.29
54948;BME280;41113;41.882;12.530;2023-07-31T08:44:34;100658.69;;;31.71;44.15
54948;BME280;41113;41.882;12.530;2023-07-31T08:47:00;100658.66;;;31.66;44.05
54948;BME280;41113;41.882;12.530;2023-07-31T08:49:26;100660.06;;;31.99;43.91
54948;BME280;41113;41.882;12.530;2023-07-31T08:51:52;100663.66;;;32.05;42.76
54948;BME280;41113;41.882;12.530;2023-07-31T08:54:19;100658.13;;;32.25;41.27
54948;BME280;41113;41.882;12.530;2023-07-31T08:56:46;100658.41;;;31.88;42.08
54948;BME280;41113;41.882;12.530;2023-07-31T08:59:12;100656.75;;;31.92;42.03
54948;BME280;41113;41.882;12.530;2023-07-31T09:01:44;100654.75;;;32.13;40.08
54948;BME280;41113;41.882;12.530;2023-07-31T09:04:12;100652.50;;;32.45;39.37
54948;BME280;41113;41.882;12.530;2023-07-31T09:06:39;100650.00;;;32.54;39.67
54948;BME280;41113;41.882;12.530;2023-07-31T09:09:04;100641.63;;;32.59;38.84
54948;BME280;41113;41.882;12.530;2023-07-31T09:11:30;100646.94;;;32.45;38.18
54948;BME280;41113;41.882;12.530;2023-07-31T09:13:57;100642.41;;;32.70;37.27
54948;BME280;41113;41.882;12.530;2023-07-31T09:16:29;100637.66;;;32.80;36.45
54948;BME280;41113;41.882;12.530;2023-07-31T09:18:57;100636.34;;;32.58;38.36
54948;BME280;41113;41.882;12.530;2023-07-31T09:21:23;100639.16;;;32.47;38.28
54948;BME280;41113;41.882;12.530;2023-07-31T09:23:49;100643.59;;;32.43;38.49
54948;BME280;41113;41.882;12.530;2023-07-31T09:26:33;100645.78;;;32.62;36.22
54948;BME280;41113;41.882;12.530;2023-07-31T09:29:00;100649.53;;;33.01;37.51
54948;BME280;41113;41.882;12.530;2023-07-31T09:33:57;100643.31;;;33.15;36.66
54948;BME280;41113;41.882;12.530;2023-07-31T09:36:23;100638.72;;;32.95;35.95
54948;BME280;41113;41.882;12.530;2023-07-31T09:38:48;100637.91;;;32.84;34.57
54948;BME280;41113;41.882;12.530;2023-07-31T09:41:13;100639.81;;;32.99;35.37
54948;BME280;41113;41.882;12.530;2023-07-31T09:43:39;100639.72;;;33.14;34.34
54948;BME280;41113;41.882;12.530;2023-07-31T09:46:13;100641.63;;;33.24;33.53
54948;BME280;41113;41.882;12.530;2023-07-31T09:48:39;100630.56;;;33.58;34.52
54948;BME280;41113;41.882;12.530;2023-07-31T09:51:04;100629.13;;;33.60;34.15
54948;BME280;41113;41.882;12.530;2023-07-31T09:53:30;100627.63;;;33.73;33.92
54948;BME280;41113;41.882;12.530;2023-07-31T09:55:58;100635.41;;;33.76;33.76
54948;BME280;41113;41.882;12.530;2023-07-31T09:58:24;100638.06;;;33.57;33.90
54948;BME280;41113;41.882;12.530;2023-07-31T10:00:53;100634.34;;;33.33;33.53
54948;BME280;41113;41.882;12.530;2023-07-31T10:03:18;100633.59;;;33.12;33.72
54948;BME280;41113;41.882;12.530;2023-07-31T10:05:51;100628.38;;;33.00;30.90
54948;BME280;41113;41.882;12.530;2023-07-31T10:08:21;100633.25;;;33.24;32.18
54948;BME280;41113;41.882;12.530;2023-07-31T10:10:49;100620.13;;;33.34;32.96
54948;BME280;41113;41.882;12.530;2023-07-31T10:13:15;100619.22;;;33.44;32.47
54948;BME280;41113;41.882;12.530;2023-07-31T10:15:41;100624.28;;;33.37;31.54
54948;BME280;41113;41.882;12.530;2023-07-31T10:18:08;100615.56;;;33.04;28.59
54948;BME280;41113;41.882;12.530;2023-07-31T10:20:35;100616.44;;;33.00;30.43
54948;BME280;41113;41.882;12.530;2023-07-31T10:23:01;100610.41;;;33.32;30.37
54948;BME280;41113;41.882;12.530;2023-07-31T10:25:27;100606.97;;;33.45;29.62
54948;BME280;41113;41.882;12.530;2023-07-31T10:27:53;100609.28;;;33.33;27.18
54948;BME280;41113;41.882;12.530;2023-07-31T10:30:22;100603.19;;;33.26;29.89
54948;BME280;41113;41.882;12.530;2023-07-31T10:32:51;100595.91;;;33.30;29.92
54948;BME280;41113;41.882;12.530;2023-07-31T10:35:17;100590.91;;;33.32;30.01
54948;BME280;41113;41.882;12.530;2023-07-31T10:37:43;100590.28;;;33.40;29.30
54948;BME280;41113;41.882;12.530;2023-07-31T10:40:19;100582.56;;;33.32;27.69
54948;BME280;41113;41.882;12.530;2023-07-31T10:42:52;100583.25;;;33.48;28.54
54948;BME280;41113;41.882;12.530;2023-07-31T10:45:38;100587.41;;;33.55;27.09
54948;BME280;41113;41.882;12.530;2023-07-31T10:48:17;100586.81;;;33.58;27.72
54948;BME280;41113;41.882;12.530;2023-07-31T10:53:24;100585.63;;;33.98;28.11
54948;BME280;41113;41.882;12.530;2023-07-31T10:55:49;100569.31;;;33.82;29.59
54948;BME280;41113;41.882;12.530;2023-07-31T10:58:19;100580.81;;;34.04;29.55
54948;BME280;41113;41.882;12.530;2023-07-31T11:00:45;100570.44;;;33.86;28.06
54948;BME280;41113;41.882;12.530;2023-07-31T11:03:15;100575.47;;;33.84;29.12
54948;BME280;41113;41.882;12.530;2023-07-31T11:08:24;100572.88;;;33.58;27.53
54948;BME280;41113;41.882;12.530;2023-07-31T11:13:32;100569.72;;;33.70;27.51
54948;BME280;41113;41.882;12.530;2023-07-31T11:15:58;100555.53;;;33.66;27.75
54948;BME280;41113;41.882;12.530;2023-07-31T11:18:24;100558.97;;;33.58;27.35
54948;BME280;41113;41.882;12.530;2023-07-31T11:20:49;100548.78;;;33.72;28.54
54948;BME280;41113;41.882;12.530;2023-07-31T11:23:16;100554.53;;;33.81;28.49
54948;BME280;41113;41.882;12.530;2023-07-31T11:25:42;100545.47;;;33.70;27.26
54948;BME280;41113;41.882;12.530;2023-07-31T11:28:15;100554.47;;;33.62;27.03
54948;BME280;41113;41.882;12.530;2023-07-31T11:30:41;100541.91;;;33.65;27.21
54948;BME280;41113;41.882;12.530;2023-07-31T11:33:10;100538.66;;;33.82;28.31
54948;BME280;41113;41.882;12.530;2023-07-31T11:35:41;100539.72;;;33.91;27.40
54948;BME280;41113;41.882;12.530;2023-07-31T11:38:07;100531.91;;;33.93;27.98
54948;BME280;41113;41.882;12.530;2023-07-31T11:40:41;100533.56;;;33.94;26.72
54948;BME280;41113;41.882;12.530;2023-07-31T11:43:07;100534.09;;;33.96;28.46
54948;BME280;41113;41.882;12.530;2023-07-31T11:45:33;100530.72;;;33.99;28.31
54948;BME280;41113;41.882;12.530;2023-07-31T11:48:00;100527.88;;;34.04;28.45
54948;BME280;41113;41.882;12.530;2023-07-31T11:50:25;100521.94;;;33.87;27.29
54948;BME280;41113;41.882;12.530;2023-07-31T11:52:56;100522.94;;;33.96;28.08
54948;BME280;41113;41.882;12.530;2023-07-31T11:55:23;100518.91;;;34.07;28.24
54948;BME280;41113;41.882;12.530;2023-07-31T11:57:48;100525.00;;;34.09;28.36
54948;BME280;41113;41.882;12.530;2023-07-31T12:00:15;100514.28;;;33.97;28.59
54948;BME280;41113;41.882;12.530;2023-07-31T12:02:41;100513.41;;;34.02;28.88
54948;BME280;41113;41.882;12.530;2023-07-31T12:05:13;100512.81;;;34.05;27.69
54948;BME280;41113;41.882;12.530;2023-07-31T12:07:48;100516.13;;;34.07;27.59
54948;BME280;41113;41.882;12.530;2023-07-31T12:10:30;100512.75;;;34.10;27.81
54948;BME280;41113;41.882;12.530;2023-07-31T12:15:41;100507.13;;;34.15;27.62
54948;BME280;41113;41.882;12.530;2023-07-31T12:18:09;100512.22;;;34.08;28.99
54948;BME280;41113;41.882;12.530;2023-07-31T12:20:35;100512.81;;;34.05;29.39
54948;BME280;41113;41.882;12.530;2023-07-31T12:23:04;100504.16;;;34.07;31.05
54948;BME280;41113;41.882;12.530;2023-07-31T12:25:32;100510.31;;;34.03;34.04
54948;BME280;41113;41.882;12.530;2023-07-31T12:27:58;100504.75;;;34.03;33.83
54948;BME280;41113;41.882;12.530;2023-07-31T12:30:28;100500.53;;;34.06;35.34
54948;BME280;41113;41.882;12.530;2023-07-31T12:32:53;100500.00;;;34.04;36.17
54948;BME280;41113;41.882;12.530;2023-07-31T12:35:19;100492.81;;;33.98;36.88
54948;BME280;41113;41.882;12.530;2023-07-31T12:37:44;100497.88;;;33.96;37.53
54948;BME280;41113;41.882;12.530;2023-07-31T12:40:10;100489.22;;;33.97;38.39
54948;BME280;41113;41.882;12.530;2023-07-31T12:42:36;100498.94;;;34.00;39.33
54948;BME280;41113;41.882;12.530;2023-07-31T12:45:01;100496.44;;;33.98;39.81
54948;BME280;41113;41.882;12.530;2023-07-31T12:47:27;100497.03;;;33.95;40.63
54948;BME280;41113;41.882;12.530;2023-07-31T12:49:52;100499.59;;;33.92;41.11
54948;BME280;41113;41.882;12.530;2023-07-31T12:52:17;100499.28;;;33.93;41.04
54948;BME280;41113;41.882;12.530;2023-07-31T12:54:43;100498.47;;;33.93;40.97